sensor_id;sensor_type;location;lat;lon;timestamp;pressure;altitude;pressure_sealevel;temperature;humidity
6425;BME280;12193;42.642;23.384;2023-02-28T00:00:10;59546.94;;;-140.48;100.00
6425;BME280;12193;42.642;23.384;2023-02-28T00:02:42;59546.94;;;-140.48;100.00
6425;BME280;12193;42.642;23.384;2023-02-28T00:05:17;59546.94;;;-140.48;100.00
6425;BME280;12193;42.642;23.384;2023-02-28T00:07:47;59546.94;;;-140.48;100.00
6425;BME280;12193;42.642;23.384;2023-02-28T00:12:46;59546.94;;;-140.48;100.00
6425;BME280;12193;42.642;23.384;2023-02-28T00:15:17;59546.94;;;-140.48;100.00
6425;BME280;12193;42.642;23.384;2023-02-28T00:17:46;59546.94;;;-140.48;100.00
6425;BME280;12193;42.642;23.384;2023-02-28T00:20:19;59546.94;;;-140.48;100.00
6425;BME280;12193;42.642;23.384;2023-02-28T00:22:50;59546.94;;;-140.48;100.00
6425;BME280;12193;42.642;23.384;2023-02-28T00:25:21;59546.94;;;-140.48;100.00
6425;BME280;12193;42.642;23.384;2023-02-28T00:27:51;59546.94;;;-140.48;100.00
6425;BME280;12193;42.642;23.384;2023-02-28T00:30:22;59546.94;;;-140.48;100.00
6425;BME280;12193;42.642;23.384;2023-02-28T00:32:52;59546.94;;;-140.48;100.00
6425;BME280;12193;42.642;23.384;2023-02-28T00:35:24;59546.94;;;-140.48;100.00
6425;BME280;12193;42.642;23.384;2023-02-28T00:37:53;59546.94;;;-140.48;100.00
6425;BME280;12193;42.642;23.384;2023-02-28T00:40:22;59546.94;;;-140.48;100.00
6425;BME280;12193;42.642;23.384;2023-02-28T00:42:52;59546.94;;;-140.48;100.00
6425;BME280;12193;42.642;23.384;2023-02-28T00:45:21;59546.94;;;-140.48;100.00
6425;BME280;12193;42.642;23.384;2023-02-28T00:47:51;59546.94;;;-140.48;100.00
6425;BME280;12193;42.642;23.384;2023-02-28T00:50:23;59546.94;;;-140.48;100.00
6425;BME280;12193;42.642;23.384;2023-02-28T00:52:53;59546.94;;;-140.48;100.00
6425;BME280;12193;42.642;23.384;2023-02-28T00:55:22;59546.94;;;-140.48;100.00
6425;BME280;12193;42.642;23.384;2023-02-28T00:57:51;59546.94;;;-140.48;100.00
6425;BME280;12193;42.642;23.384;2023-02-28T01:00:21;59546.94;;;-140.48;100.00
6425;BME280;12193;42.642;23.384;2023-02-28T01:02:51;59546.94;;;-140.48;100.00
6425;BME280;12193;42.642;23.384;2023-02-28T01:05:22;59546.94;;;-140.48;100.00
6425;BME280;12193;42.642;23.384;2023-02-28T04:08:22;94934.66;;;5.49;100.00
6425;BME280;12193;42.642;23.384;2023-02-28T04:10:56;94942.75;;;5.70;100.00
6425;BME280;12193;42.642;23.384;2023-02-28T04:13:27;94944.00;;;5.74;100.00
6425;BME280;12193;42.642;23.384;2023-02-28T04:15:57;94940.00;;;5.88;100.00
6425;BME280;12193;42.642;23.384;2023-02-28T04:18:26;94937.91;;;5.91;100.00
6425;BME280;12193;42.642;23.384;2023-02-28T04:20:59;94948.69;;;5.71;100.00
6425;BME280;12193;42.642;23.384;2023-02-28T04:23:31;94943.06;;;5.67;100.00
6425;BME280;12193;42.642;23.384;2023-02-28T04:26:01;94933.03;;;5.40;100.00
6425;BME280;12193;42.642;23.384;2023-02-28T04:28:32;94936.72;;;5.30;100.00
6425;BME280;12193;42.642;23.384;2023-02-28T04:31:03;94927.38;;;5.29;100.00
6425;BME280;12193;42.642;23.384;2023-02-28T04:33:33;94933.66;;;5.26;100.00
6425;BME280;12193;42.642;23.384;2023-02-28T04:36:04;94944.13;;;5.33;100.00
6425;BME280;12193;42.642;23.384;2023-02-28T04:38:38;94943.50;;;5.39;100.00
6425;BME280;12193;42.642;23.384;2023-02-28T04:41:08;94954.13;;;5.44;100.00
6425;BME280;12193;42.642;23.384;2023-02-28T04:43:37;94954.78;;;5.46;100.00
6425;BME280;12193;42.642;23.384;2023-02-28T04:46:08;94961.03;;;5.27;100.00
6425;BME280;12193;42.642;23.384;2023-02-28T04:48:39;94963.25;;;5.14;100.00
6425;BME280;12193;42.642;23.384;2023-02-28T04:51:12;94963.41;;;5.13;100.00
6425;BME280;12193;42.642;23.384;2023-02-28T04:53:44;94959.66;;;5.00;100.00
6425;BME280;12193;42.642;23.384;2023-02-28T04:56:16;94966.38;;;4.93;100.00
6425;BME280;12193;42.642;23.384;2023-02-28T04:58:46;94962.53;;;4.89;100.00
6425;BME280;12193;42.642;23.384;2023-02-28T05:01:21;94958.34;;;4.88;100.00
6425;BME280;12193;42.642;23.384;2023-02-28T05:03:53;94961.75;;;4.96;100.00
6425;BME280;12193;42.642;23.384;2023-02-28T05:06:24;94972.56;;;5.08;100.00
6425;BME280;12193;42.642;23.384;2023-02-28T05:08:56;94963.88;;;5.09;100.00
6425;BME280;12193;42.642;23.384;2023-02-28T05:11:28;94959.69;;;5.15;100.00
6425;BME280;12193;42.642;23.384;2023-02-28T05:14:01;94964.88;;;5.23;100.00
6425;BME280;12193;42.642;23.384;2023-02-28T05:16:31;94975.84;;;5.25;100.00
6425;BME280;12193;42.642;23.384;2023-02-28T05:19:00;94975.34;;;5.22;100.00
6425;BME280;12193;42.642;23.384;2023-02-28T05:21:31;94980.22;;;5.41;100.00
6425;BME280;12193;42.642;23.384;2023-02-28T05:24:06;94983.28;;;5.52;100.00
6425;BME280;12193;42.642;23.384;2023-02-28T05:26:37;94983.16;;;5.54;100.00
6425;BME280;12193;42.642;23.384;2023-02-28T05:29:08;94985.09;;;5.68;100.00
6425;BME280;12193;42.642;23.384;2023-02-28T05:31:38;94989.59;;;5.66;100.00
6425;BME280;12193;42.642;23.384;2023-02-28T05:34:07;94991.53;;;5.64;100.00
6425;BME280;12193;42.642;23.384;2023-02-28T05:36:37;94991.38;;;5.73;100.00
6425;BME280;12193;42.642;23.384;2023-02-28T05:39:10;94994.81;;;5.82;100.00
6425;BME280;12193;42.642;23.384;2023-02-28T05:41:41;94993.38;;;5.87;100.00
6425;BME280;12193;42.642;23.384;2023-02-28T05:44:11;95000.16;;;5.88;100.00
6425;BME280;12193;42.642;23.384;2023-02-28T05:46:40;95008.69;;;5.81;100.00
6425;BME280;12193;42.642;23.384;2023-02-28T05:49:10;94997.72;;;5.87;100.00
6425;BME280;12193;42.642;23.384;2023-02-28T05:51:39;95010.09;;;5.75;100.00
6425;BME280;12193;42.642;23.384;2023-02-28T05:54:11;95011.84;;;5.67;100.00
6425;BME280;12193;42.642;23.384;2023-02-28T05:56:41;95008.69;;;5.81;100.00
6425;BME280;12193;42.642;23.384;2023-02-28T05:59:12;95017.75;;;6.01;100.00
6425;BME280;12193;42.642;23.384;2023-02-28T06:01:42;95009.50;;;5.97;100.00
6425;BME280;12193;42.642;23.384;2023-02-28T06:04:15;95004.66;;;6.02;100.00
6425;BME280;12193;42.642;23.384;2023-02-28T06:06:46;95009.69;;;5.96;100.00
6425;BME280;12193;42.642;23.384;2023-02-28T06:09:18;95002.41;;;5.83;100.00
6425;BME280;12193;42.642;23.384;2023-02-28T06:11:48;95006.94;;;5.89;100.00
6425;BME280;12193;42.642;23.384;2023-02-28T06:14:18;95005.47;;;6.11;100.00
6425;BME280;12193;42.642;23.384;2023-02-28T06:16:48;95002.25;;;6.17;100.00
6425;BME280;12193;42.642;23.384;2023-02-28T06:19:17;95007.28;;;6.10;100.00
6425;BME280;12193;42.642;23.384;2023-02-28T06:21:50;94999.03;;;6.07;100.00
6425;BME280;12193;42.642;23.384;2023-02-28T06:24:23;95010.47;;;6.12;100.00
6425;BME280;12193;42.642;23.384;2023-02-28T06:26:54;95015.63;;;5.88;100.00
6425;BME280;12193;42.642;23.384;2023-02-28T06:29:25;95008.03;;;5.87;100.00
6425;BME280;12193;42.642;23.384;2023-02-28T06:31:54;95014.00;;;5.79;100.00
6425;BME280;12193;42.642;23.384;2023-02-28T06:34:24;95013.84;;;5.81;100.00
6425;BME280;12193;42.642;23.384;2023-02-28T06:36:53;95019.31;;;5.86;100.00
6425;BME280;12193;42.642;23.384;2023-02-28T06:39:25;95011.13;;;6.06;100.00
6425;BME280;12193;42.642;23.384;2023-02-28T06:41:54;95010.47;;;5.96;100.00
6425;BME280;12193;42.642;23.384;2023-02-28T06:44:24;95020.78;;;5.96;100.00
6425;BME280;12193;42.642;23.384;2023-02-28T06:46:53;95015.47;;;6.06;100.00
6425;BME280;12193;42.642;23.384;2023-02-28T06:49:23;95022.25;;;6.22;100.00
6425;BME280;12193;42.642;23.384;2023-02-28T06:51:52;95029.34;;;6.28;100.00
6425;BME280;12193;42.642;23.384;2023-02-28T06:54:21;95029.81;;;6.32;100.00
6425;BME280;12193;42.642;23.384;2023-02-28T06:56:53;95032.75;;;6.29;100.00
6425;BME280;12193;42.642;23.384;2023-02-28T06:59:23;95029.50;;;6.43;100.00
6425;BME280;12193;42.642;23.384;2023-02-28T07:01:52;95036.72;;;6.63;100.00
6425;BME280;12193;42.642;23.384;2023-02-28T07:04:22;95033.03;;;6.66;100.00
6425;BME280;12193;42.642;23.384;2023-02-28T07:06:51;95028.16;;;6.87;100.00
6425;BME280;12193;42.642;23.384;2023-02-28T07:09:22;95038.66;;;6.69;100.00
6425;BME280;12193;42.642;23.384;2023-02-28T07:11:58;95032.72;;;6.69;100.00
6425;BME280;12193;42.642;23.384;2023-02-28T07:14:28;95025.59;;;6.63;100.00
6425;BME280;12193;42.642;23.384;2023-02-28T07:16:57;95025.44;;;6.64;100.00
6425;BME280;12193;42.642;23.384;2023-02-28T07:19:26;95018.13;;;6.76;100.00
6425;BME280;12193;42.642;23.384;2023-02-28T07:21:56;95023.16;;;6.77;100.00
6425;BME280;12193;42.642;23.384;2023-02-28T07:24:25;95025.88;;;6.92;100.00
6425;BME280;12193;42.642;23.384;2023-02-28T07:26:58;95036.69;;;6.95;100.00
6425;BME280;12193;42.642;23.384;2023-02-28T07:29:28;95030.34;;;7.06;100.00
6425;BME280;12193;42.642;23.384;2023-02-28T07:31:57;95030.47;;;7.20;100.00
6425;BME280;12193;42.642;23.384;2023-02-28T07:34:27;95019.63;;;7.55;100.00
6425;BME280;12193;42.642;23.384;2023-02-28T07:36:56;95022.84;;;7.57;100.00
6425;BME280;12193;42.642;23.384;2023-02-28T07:39:26;95010.91;;;7.56;100.00
6425;BME280;12193;42.642;23.384;2023-02-28T07:41:58;95022.13;;;7.40;100.00
6425;BME280;12193;42.642;23.384;2023-02-28T07:44:29;95021.69;;;7.29;100.00
6425;BME280;12193;42.642;23.384;2023-02-28T07:46:59;95029.94;;;7.24;100.00
6425;BME280;12193;42.642;23.384;2023-02-28T07:49:28;95019.50;;;7.48;100.00
6425;BME280;12193;42.642;23.384;2023-02-28T07:51:58;95025.44;;;7.57;100.00
6425;BME280;12193;42.642;23.384;2023-02-28T07:54:27;95026.38;;;7.64;100.00
6425;BME280;12193;42.642;23.384;2023-02-28T07:56:59;95028.16;;;7.63;100.00
6425;BME280;12193;42.642;23.384;2023-02-28T07:59:28;95021.75;;;7.82;100.00
6425;BME280;12193;42.642;23.384;2023-02-28T08:01:58;95021.91;;;7.80;100.00
6425;BME280;12193;42.642;23.384;2023-02-28T08:04:27;95013.75;;;7.91;100.00
6425;BME280;12193;42.642;23.384;2023-02-28T08:07:01;95024.44;;;8.11;100.00
6425;BME280;12193;42.642;23.384;2023-02-28T08:09:30;95019.81;;;8.28;100.00
6425;BME280;12193;42.642;23.384;2023-02-28T08:12:02;95031.06;;;8.58;100.00
6425;BME280;12193;42.642;23.384;2023-02-28T08:14:32;95029.66;;;8.33;100.00
6425;BME280;12193;42.642;23.384;2023-02-28T08:17:01;95015.75;;;8.34;100.00
6425;BME280;12193;42.642;23.384;2023-02-28T08:19:31;95021.22;;;8.53;100.00
6425;BME280;12193;42.642;23.384;2023-02-28T08:22:01;95020.09;;;8.56;100.00
6425;BME280;12193;42.642;23.384;2023-02-28T08:24:30;95022.16;;;8.75;100.00
6425;BME280;12193;42.642;23.384;2023-02-28T08:27:03;95009.81;;;8.77;100.00
6425;BME280;12193;42.642;23.384;2023-02-28T08:29:32;95016.84;;;9.05;100.00
6425;BME280;12193;42.642;23.384;2023-02-28T08:32:01;95026.03;;;9.08;100.00
6425;BME280;12193;42.642;23.384;2023-02-28T08:34:30;95017.28;;;9.23;100.00
6425;BME280;12193;42.642;23.384;2023-02-28T08:36:59;95019.09;;;9.58;100.00
6425;BME280;12193;42.642;23.384;2023-02-28T08:39:29;95033.09;;;9.78;100.00
6425;BME280;12193;42.642;23.384;2023-02-28T08:41:58;95031.34;;;9.78;100.00
6425;BME280;12193;42.642;23.384;2023-02-28T08:44:31;95032.69;;;10.10;100.00
6425;BME280;12193;42.642;23.384;2023-02-28T08:47:00;95023.66;;;9.70;100.00
6425;BME280;12193;42.642;23.384;2023-02-28T08:49:30;95015.75;;;10.34;100.00
6425;BME280;12193;42.642;23.384;2023-02-28T08:51:59;95025.56;;;9.97;100.00
6425;BME280;12193;42.642;23.384;2023-02-28T08:54:28;95025.72;;;9.96;100.00
6425;BME280;12193;42.642;23.384;2023-02-28T08:56:59;95022.06;;;10.05;100.00
6425;BME280;12193;42.642;23.384;2023-02-28T08:59:31;95031.28;;;9.93;100.00
6425;BME280;12193;42.642;23.384;2023-02-28T09:02:01;95026.28;;;10.06;100.00
6425;BME280;12193;42.642;23.384;2023-02-28T09:04:30;95027.66;;;9.73;100.00
6425;BME280;12193;42.642;23.384;2023-02-28T09:06:59;95031.56;;;9.83;100.00
6425;BME280;12193;42.642;23.384;2023-02-28T09:09:29;95029.97;;;10.38;100.00
6425;BME280;12193;42.642;23.384;2023-02-28T09:11:58;95023.16;;;10.17;100.00
6425;BME280;12193;42.642;23.384;2023-02-28T09:14:31;95020.53;;;9.96;100.00
6425;BME280;12193;42.642;23.384;2023-02-28T09:17:00;95026.94;;;10.35;100.00
6425;BME280;12193;42.642;23.384;2023-02-28T09:19:29;95029.84;;;10.26;100.00
6425;BME280;12193;42.642;23.384;2023-02-28T09:21:58;95028.16;;;10.60;100.00
6425;BME280;12193;42.642;23.384;2023-02-28T09:24:28;95031.00;;;10.65;100.00
6425;BME280;12193;42.642;23.384;2023-02-28T09:26:57;95019.94;;;10.35;100.00
6425;BME280;12193;42.642;23.384;2023-02-28T09:29:27;95028.50;;;9.44;100.00
6425;BME280;12193;42.642;23.384;2023-02-28T09:31:59;95020.50;;;9.75;100.00
6425;BME280;12193;42.642;23.384;2023-02-28T09:34:28;95024.03;;;9.53;100.00
6425;BME280;12193;42.642;23.384;2023-02-28T09:36:59;95024.56;;;9.48;100.00
6425;BME280;12193;42.642;23.384;2023-02-28T09:39:28;95041.03;;;9.41;100.00
6425;BME280;12193;42.642;23.384;2023-02-28T09:41:58;95028.78;;;9.49;100.00
6425;BME280;12193;42.642;23.384;2023-02-28T09:44:30;95023.81;;;9.69;100.00
6425;BME280;12193;42.642;23.384;2023-02-28T09:47:10;95013.13;;;9.57;100.00
6425;BME280;12193;42.642;23.384;2023-02-28T09:49:43;95013.44;;;9.69;100.00
6425;BME280;12193;42.642;23.384;2023-02-28T09:52:16;95023.28;;;9.73;100.00
6425;BME280;12193;42.642;23.384;2023-02-28T09:54:47;95012.97;;;9.80;100.00
6425;BME280;12193;42.642;23.384;2023-02-28T09:57:19;95014.88;;;10.07;100.00
6425;BME280;12193;42.642;23.384;2023-02-28T09:59:59;95018.91;;;9.95;100.00
6425;BME280;12193;42.642;23.384;2023-02-28T10:02:53;95009.38;;;9.81;100.00
6425;BME280;12193;42.642;23.384;2023-02-28T10:05:27;95007.63;;;9.67;100.00
6425;BME280;12193;42.642;23.384;2023-02-28T10:08:03;95013.53;;;9.75;100.00
6425;BME280;12193;42.642;23.384;2023-02-28T10:10:37;95011.13;;;9.59;100.00
6425;BME280;12193;42.642;23.384;2023-02-28T10:13:15;95014.16;;;9.77;100.00
6425;BME280;12193;42.642;23.384;2023-02-28T10:15:47;95011.59;;;9.63;100.00
6425;BME280;12193;42.642;23.384;2023-02-28T10:18:24;95006.09;;;9.72;100.00
6425;BME280;12193;42.642;23.384;2023-02-28T10:20:56;95011.00;;;9.82;100.00
6425;BME280;12193;42.642;23.384;2023-02-28T10:23:28;95001.22;;;9.84;100.00
6425;BME280;12193;42.642;23.384;2023-02-28T10:26:05;94991.53;;;9.92;100.00
6425;BME280;12193;42.642;23.384;2023-02-28T10:28:39;94999.94;;;10.09;100.00
6425;BME280;12193;42.642;23.384;2023-02-28T10:33:44;94992.91;;;10.78;100.00
6425;BME280;12193;42.642;23.384;2023-02-28T10:36:17;94981.41;;;10.94;100.00
6425;BME280;12193;42.642;23.384;2023-02-28T10:38:48;94992.03;;;11.33;100.00
6425;BME280;12193;42.642;23.384;2023-02-28T10:41:28;94987.31;;;12.02;100.00
6425;BME280;12193;42.642;23.384;2023-02-28T10:44:14;94982.13;;;11.15;100.00
6425;BME280;12193;42.642;23.384;2023-02-28T10:46:44;94969.41;;;10.65;100.00
6425;BME280;12193;42.642;23.384;2023-02-28T10:49:20;94966.56;;;10.88;100.00
6425;BME280;12193;42.642;23.384;2023-02-28T10:51:52;94959.34;;;11.70;100.00
6425;BME280;12193;42.642;23.384;2023-02-28T10:54:27;94964.28;;;11.12;100.00
6425;BME280;12193;42.642;23.384;2023-02-28T10:57:16;94951.19;;;10.59;100.00
6425;BME280;12193;42.642;23.384;2023-02-28T10:59:50;94958.50;;;10.49;100.00
6425;BME280;12193;42.642;23.384;2023-02-28T11:02:33;94950.72;;;10.28;100.00
6425;BME280;12193;42.642;23.384;2023-02-28T11:05:23;94953.81;;;10.38;100.00
6425;BME280;12193;42.642;23.384;2023-02-28T11:07:53;94937.69;;;10.49;100.00
6425;BME280;12193;42.642;23.384;2023-02-28T11:10:26;94942.28;;;10.47;100.00
6425;BME280;12193;42.642;23.384;2023-02-28T11:12:58;94949.53;;;10.31;100.00
6425;BME280;12193;42.642;23.384;2023-02-28T11:15:29;94943.56;;;10.91;100.00
6425;BME280;12193;42.642;23.384;2023-02-28T11:18:00;94936.94;;;11.82;100.00
6425;BME280;12193;42.642;23.384;2023-02-28T11:20:33;94951.47;;;11.51;100.00
6425;BME280;12193;42.642;23.384;2023-02-28T11:23:04;94939.94;;;11.73;100.00
6425;BME280;12193;42.642;23.384;2023-02-28T11:25:37;94937.00;;;11.36;100.00
6425;BME280;12193;42.642;23.384;2023-02-28T11:28:24;94944.72;;;10.82;100.00
6425;BME280;12193;42.642;23.384;2023-02-28T11:31:03;94931.13;;;10.53;100.00
6425;BME280;12193;42.642;23.384;2023-02-28T11:33:41;94935.44;;;9.98;100.00
6425;BME280;12193;42.642;23.384;2023-02-28T11:36:15;94934.78;;;10.31;100.00
6425;BME280;12193;42.642;23.384;2023-02-28T11:38:46;94934.56;;;10.32;100.00
6425;BME280;12193;42.642;23.384;2023-02-28T11:41:30;94925.28;;;10.44;100.00
6425;BME280;12193;42.642;23.384;2023-02-28T11:44:17;94934.66;;;10.73;100.00
6425;BME280;12193;42.642;23.384;2023-02-28T11:46:51;94931.28;;;10.45;100.00
6425;BME280;12193;42.642;23.384;2023-02-28T11:49:30;94922.22;;;10.14;100.00
6425;BME280;12193;42.642;23.384;2023-02-28T11:52:10;94917.94;;;10.54;100.00
6425;BME280;12193;42.642;23.384;2023-02-28T11:58:07;94919.09;;;10.79;100.00
6425;BME280;12193;42.642;23.384;2023-02-28T12:01:07;94927.66;;;10.73;100.00
6425;BME280;12193;42.642;23.384;2023-02-28T12:03:44;94920.13;;;10.51;100.00
6425;BME280;12193;42.642;23.384;2023-02-28T12:06:20;94911.50;;;10.50;100.00
6425;BME280;12193;42.642;23.384;2023-02-28T12:09:04;94922.31;;;10.47;100.00
6425;BME280;12193;42.642;23.384;2023-02-28T12:11:46;94918.88;;;10.74;100.00
6425;BME280;12193;42.642;23.384;2023-02-28T12:17:16;94905.38;;;10.92;100.00
6425;BME280;12193;42.642;23.384;2023-02-28T12:20:00;94917.88;;;11.09;100.00
6425;BME280;12193;42.642;23.384;2023-02-28T12:22:38;94910.72;;;10.50;100.00
6425;BME280;12193;42.642;23.384;2023-02-28T12:25:43;94921.41;;;10.61;100.00
6425;BME280;12193;42.642;23.384;2023-02-28T12:28:21;94908.56;;;10.87;100.00
6425;BME280;12193;42.642;23.384;2023-02-28T12:30:56;94920.38;;;10.96;100.00
6425;BME280;12193;42.642;23.384;2023-02-28T12:33:30;94905.38;;;10.92;100.00
6425;BME280;12193;42.642;23.384;2023-02-28T12:36:05;94912.13;;;10.80;100.00
6425;BME280;12193;42.642;23.384;2023-02-28T12:38:39;94919.81;;;10.67;100.00
6425;BME280;12193;42.642;23.384;2023-02-28T12:41:14;94914.19;;;10.57;100.00
6425;BME280;12193;42.642;23.384;2023-02-28T12:43:47;94900.91;;;10.18;100.00
6425;BME280;12193;42.642;23.384;2023-02-28T12:46:22;94912.66;;;10.14;100.00
6425;BME280;12193;42.642;23.384;2023-02-28T12:48:55;94902.59;;;10.59;100.00
6425;BME280;12193;42.642;23.384;2023-02-28T12:51:25;59546.94;;;-140.48;100.00
6425;BME280;12193;42.642;23.384;2023-02-28T12:54:02;59546.94;;;-140.48;100.00
6425;BME280;12193;42.642;23.384;2023-02-28T12:56:43;59546.94;;;-140.48;100.00
6425;BME280;12193;42.642;23.384;2023-02-28T12:59:21;59546.94;;;-140.48;100.00
6425;BME280;12193;42.642;23.384;2023-02-28T13:02:12;59546.94;;;-140.48;100.00
6425;BME280;12193;42.642;23.384;2023-02-28T13:05:05;59546.94;;;-140.48;100.00
6425;BME280;12193;42.642;23.384;2023-02-28T13:10:45;59546.94;;;-140.48;100.00
6425;BME280;12193;42.642;23.384;2023-02-28T13:13:20;59546.94;;;-140.48;100.00
6425;BME280;12193;42.642;23.384;2023-02-28T13:16:02;59546.94;;;-140.48;100.00
6425;BME280;12193;42.642;23.384;2023-02-28T13:18:34;59546.94;;;-140.48;100.00
6425;BME280;12193;42.642;23.384;2023-02-28T13:21:07;59546.94;;;-140.48;100.00
6425;BME280;12193;42.642;23.384;2023-02-28T13:23:58;59546.94;;;-140.48;100.00
6425;BME280;12193;42.642;23.384;2023-02-28T13:29:34;59546.94;;;-140.48;100.00
6425;BME280;12193;42.642;23.384;2023-02-28T13:32:27;59546.94;;;-140.48;100.00
6425;BME280;12193;42.642;23.384;2023-02-28T13:38:17;59546.94;;;-140.48;100.00
6425;BME280;12193;42.642;23.384;2023-02-28T13:40:46;59546.94;;;-140.48;100.00
6425;BME280;12193;42.642;23.384;2023-02-28T13:43:17;59546.94;;;-140.48;100.00
6425;BME280;12193;42.642;23.384;2023-02-28T13:46:13;59546.94;;;-140.48;100.00
6425;BME280;12193;42.642;23.384;2023-02-28T13:48:42;59546.94;;;-140.48;100.00
6425;BME280;12193;42.642;23.384;2023-02-28T13:51:39;59546.94;;;-140.48;100.00
6425;BME280;12193;42.642;23.384;2023-02-28T13:54:30;59546.94;;;-140.48;100.00
6425;BME280;12193;42.642;23.384;2023-02-28T13:57:14;59546.94;;;-140.48;100.00
6425;BME280;12193;42.642;23.384;2023-02-28T14:00:15;59546.94;;;-140.48;100.00
6425;BME280;12193;42.642;23.384;2023-02-28T14:03:04;59546.94;;;-140.48;100.00
6425;BME280;12193;42.642;23.384;2023-02-28T14:05:37;59546.94;;;-140.48;100.00
6425;BME280;12193;42.642;23.384;2023-02-28T14:08:12;59546.94;;;-140.48;100.00
6425;BME280;12193;42.642;23.384;2023-02-28T14:10:45;59546.94;;;-140.48;100.00
6425;BME280;12193;42.642;23.384;2023-02-28T14:13:37;59546.94;;;-140.48;100.00
6425;BME280;12193;42.642;23.384;2023-02-28T14:16:11;59546.94;;;-140.48;100.00
6425;BME280;12193;42.642;23.384;2023-02-28T14:18:50;59546.94;;;-140.48;100.00
6425;BME280;12193;42.642;23.384;2023-02-28T14:21:23;59546.94;;;-140.48;100.00
6425;BME280;12193;42.642;23.384;2023-02-28T14:33:13;59546.94;;;-140.48;100.00
6425;BME280;12193;42.642;23.384;2023-02-28T14:36:06;59546.94;;;-140.48;100.00
6425;BME280;12193;42.642;23.384;2023-02-28T14:38:41;59546.94;;;-140.48;100.00
6425;BME280;12193;42.642;23.384;2023-02-28T14:41:19;59546.94;;;-140.48;100.00
6425;BME280;12193;42.642;23.384;2023-02-28T14:43:55;59546.94;;;-140.48;100.00
6425;BME280;12193;42.642;23.384;2023-02-28T14:46:28;59546.94;;;-140.48;100.00
6425;BME280;12193;42.642;23.384;2023-02-28T14:48:59;59546.94;;;-140.48;100.00
6425;BME280;12193;42.642;23.384;2023-02-28T14:51:32;59546.94;;;-140.48;100.00
6425;BME280;12193;42.642;23.384;2023-02-28T14:54:03;59546.94;;;-140.48;100.00
6425;BME280;12193;42.642;23.384;2023-02-28T14:56:36;59546.94;;;-140.48;100.00
6425;BME280;12193;42.642;23.384;2023-02-28T14:59:23;59546.94;;;-140.48;100.00
6425;BME280;12193;42.642;23.384;2023-02-28T15:02:07;59546.94;;;-140.48;100.00
6425;BME280;12193;42.642;23.384;2023-02-28T15:04:36;59546.94;;;-140.48;100.00
6425;BME280;12193;42.642;23.384;2023-02-28T15:07:13;59546.94;;;-140.48;100.00
6425;BME280;12193;42.642;23.384;2023-02-28T15:09:43;59546.94;;;-140.48;100.00
6425;BME280;12193;42.642;23.384;2023-02-28T15:12:14;59546.94;;;-140.48;100.00
6425;BME280;12193;42.642;23.384;2023-02-28T15:14:45;59546.94;;;-140.48;100.00
6425;BME280;12193;42.642;23.384;2023-02-28T15:17:24;59546.94;;;-140.48;100.00
6425;BME280;12193;42.642;23.384;2023-02-28T15:19:54;59546.94;;;-140.48;100.00
6425;BME280;12193;42.642;23.384;2023-02-28T15:22:29;59546.94;;;-140.48;100.00
6425;BME280;12193;42.642;23.384;2023-02-28T15:25:03;59546.94;;;-140.48;100.00
6425;BME280;12193;42.642;23.384;2023-02-28T15:27:39;59546.94;;;-140.48;100.00
6425;BME280;12193;42.642;23.384;2023-02-28T15:30:17;59546.94;;;-140.48;100.00
6425;BME280;12193;42.642;23.384;2023-02-28T15:33:03;59546.94;;;-140.48;100.00
6425;BME280;12193;42.642;23.384;2023-02-28T15:35:35;59546.94;;;-140.48;100.00
6425;BME280;12193;42.642;23.384;2023-02-28T15:38:15;59546.94;;;-140.48;100.00
6425;BME280;12193;42.642;23.384;2023-02-28T15:40:49;59546.94;;;-140.48;100.00
6425;BME280;12193;42.642;23.384;2023-02-28T15:43:24;59546.94;;;-140.48;100.00
6425;BME280;12193;42.642;23.384;2023-02-28T15:45:57;59546.94;;;-140.48;100.00
6425;BME280;12193;42.642;23.384;2023-02-28T15:48:29;59546.94;;;-140.48;100.00
6425;BME280;12193;42.642;23.384;2023-02-28T15:51:02;59546.94;;;-140.48;100.00
6425;BME280;12193;42.642;23.384;2023-02-28T15:53:48;59546.94;;;-140.48;100.00
6425;BME280;12193;42.642;23.384;2023-02-28T15:56:23;59546.94;;;-140.48;100.00
6425;BME280;12193;42.642;23.384;2023-02-28T15:58:54;59546.94;;;-140.48;100.00
6425;BME280;12193;42.642;23.384;2023-02-28T16:01:26;59546.94;;;-140.48;100.00
6425;BME280;12193;42.642;23.384;2023-02-28T16:04:00;59546.94;;;-140.48;100.00
6425;BME280;12193;42.642;23.384;2023-02-28T16:06:39;59546.94;;;-140.48;100.00
6425;BME280;12193;42.642;23.384;2023-02-28T16:09:13;59546.94;;;-140.48;100.00
6425;BME280;12193;42.642;23.384;2023-02-28T16:11:45;59546.94;;;-140.48;100.00
6425;BME280;12193;42.642;23.384;2023-02-28T16:14:17;59546.94;;;-140.48;100.00
6425;BME280;12193;42.642;23.384;2023-02-28T16:16:50;59546.94;;;-140.48;100.00
6425;BME280;12193;42.642;23.384;2023-02-28T16:19:21;59546.94;;;-140.48;100.00
6425;BME280;12193;42.642;23.384;2023-02-28T16:21:51;59546.94;;;-140.48;100.00
6425;BME280;12193;42.642;23.384;2023-02-28T16:24:23;59546.94;;;-140.48;100.00
6425;BME280;12193;42.642;23.384;2023-02-28T16:26:54;59546.94;;;-140.48;100.00
6425;BME280;12193;42.642;23.384;2023-02-28T16:29:27;59546.94;;;-140.48;100.00
6425;BME280;12193;42.642;23.384;2023-02-28T16:31:58;59546.94;;;-140.48;100.00
6425;BME280;12193;42.642;23.384;2023-02-28T16:34:28;59546.94;;;-140.48;100.00
6425;BME280;12193;42.642;23.384;2023-02-28T16:36:58;59546.94;;;-140.48;100.00
6425;BME280;12193;42.642;23.384;2023-02-28T16:39:30;59546.94;;;-140.48;100.00
6425;BME280;12193;42.642;23.384;2023-02-28T16:41:59;59546.94;;;-140.48;100.00
6425;BME280;12193;42.642;23.384;2023-02-28T16:44:30;59546.94;;;-140.48;100.00
6425;BME280;12193;42.642;23.384;2023-02-28T16:47:01;59546.94;;;-140.48;100.00
6425;BME280;12193;42.642;23.384;2023-02-28T16:49:31;59546.94;;;-140.48;100.00